Terminal Aerodrome Forecast
Issued by NWS Wakefield, VA

Home | Current Version | Previous Version | Text Only | Print | Product List | Glossary On
Versions: 1 2 3 4 5 6 7 8 9 10 11 12 13 14 15 16 17 18 19 20 21 22
000
FTUS41 KAKQ 211746
TAFRIC
TAF
KRIC 211746Z 2118/2218 18009KT P6SM BKN040
     FM220300 18004KT P6SM SCT060
     FM220800 18003KT 5SM BR SCT250
     FM221300 21008KT P6SM SCT250=

USA.gov is the U.S. government's official web portal to all federal, state and local government web resources and services.